Fagelgracht — PBST — position and weather

sailwx.info

Track history (hours):
 
Tides and Currents Weather Stations Pressure Air Temp Water Temp Dewpoint Dewpoint Depression Visibility Wind Speed Wind Dir Waves Ship Positions

Fagelgracht

Last reported at 2017-Dec-03 02:45 UTC. Time now 2017-Dec-11 07:37 UTC.
Position N 51°35' W 005°51'.
Warning: this ship's position is 8 days out of date.

Length 136 m; draft 8.1 m.

Type: Cargo ship. MMSI: 246591000.

Date/timePositionNaut miles runAvg speedWind from/ knotsBaromVisibWave heightAir tempDewpointWater temp
2017-Dec-03 02:45N 51°35' W 005°51'311.2
2017-Dec-03 02:29N 51°32' W 005°51'3111.4
2017-Dec-02 23:48N 51°01' W 005°52'511.7
2017-Dec-02 23:25N 50°57' W 005°52'511.9
2017-Dec-02 22:58N 50°51' W 005°52'511.9
2017-Dec-02 22:31N 50°46' W 005°52'611.8
2017-Dec-02 22:01N 50°40' W 005°52'611.7
2017-Dec-02 21:31N 50°34' W 005°52'611.6
2017-Dec-02 21:00N 50°28' W 005°53'611.6
2017-Dec-02 20:30N 50°23' W 005°53'611.3
2017-Dec-02 19:57N 50°16' W 005°53'24 8.6
2017-Dec-02 17:07N 49°55' W 005°35'1711.3
2017-Dec-02 15:36N 49°56' W 005°08'111.5
2017-Dec-02 15:29N 49°56' W 005°06'611.9
2017-Dec-02 14:59N 49°57' W 004°57'612.2
2017-Dec-02 14:31N 49°58' W 004°48'612.6
2017-Dec-02 14:00N 49°59' W 004°38'612.9
2017-Dec-02 13:30N 50°00' W 004°28'713.2
2017-Dec-02 13:01N 50°02' W 004°18'713.6
2017-Dec-02 12:29N 50°03' W 004°07'814.1
2017-Dec-02 11:57N 50°04' W 003°56'614.7
2017-Dec-02 11:31N 50°05' W 003°46'815.0
2017-Dec-02 11:00N 50°07' W 003°34'714.8
2017-Dec-02 10:31N 50°08' W 003°23'714.5
2017-Dec-02 10:01N 50°09' W 003°12'714.0
2017-Dec-02 09:30N 50°11' W 003°01'713.5
2017-Dec-02 09:00N 50°12' W 002°51'613.0
2017-Dec-02 08:30N 50°13' W 002°41'712.2
2017-Dec-02 07:56N 50°14' W 002°30'2110.7
2017-Dec-02 06:01N 50°18' W 001°59'210.1
2017-Dec-02 05:51N 50°18' W 001°56'410.3
2017-Dec-02 05:30N 50°19' W 001°51'3212.2
2017-Dec-02 02:52N 50°24' W 001°01'715.0
2017-Dec-02 02:25N 50°26' W 000°51'1015.3
2017-Dec-02 01:45N 50°28' W 000°35'515.1
2017-Dec-02 01:27N 50°28' W 000°28'715.1
2017-Dec-02 01:00N 50°30' W 000°17'714.8
2017-Dec-02 00:30N 50°31' W 000°06'714.6
2017-Dec-02 00:00N 50°33' E 000°05'714.4
2017-Dec-01 23:30N 50°35' E 000°16'714.2
2017-Dec-01 23:00N 50°37' E 000°27'713.6
2017-Dec-01 22:31N 50°39' E 000°37'713.2
2017-Dec-01 22:01N 50°43' E 000°45'612.8
2017-Dec-01 21:31N 50°47' E 000°54'1812.6
2017-Dec-01 20:03N 50°58' E 001°16'413.3
2017-Dec-01 19:43N 51°01' E 001°22'314.1
2017-Dec-01 19:31N 51°03' E 001°25'815.4
2017-Dec-01 19:00N 51°08' E 001°35'815.8
2017-Dec-01 18:30N 51°13' E 001°44'816.2
2017-Dec-01 18:00N 51°20' E 001°50'815.7
2017-Dec-01 17:31N 51°27' E 001°56'815.0
2017-Dec-01 17:01N 51°32' E 002°04'714.5
2017-Dec-01 16:30N 51°38' E 002°13'714.1
2017-Dec-01 16:00N 51°43' E 002°21'5611.8
2017-Dec-01 11:13N 52°02' E 003°46'211.3
2017-Dec-01 11:00N 52°02' E 003°50'5 9.9
2017-Dec-01 10:30N 52°01' E 003°58'611.8
2017-Dec-01 10:01N 51°59' E 004°07'5 9.4
2017-Dec-01 09:31N 51°56' E 004°13'5 9.1
2017-Dec-01 09:01N 51°54' E 004°19'4 8.2
2017-Dec-01 08:31N 51°54' E 004°26'1 2.2
2017-Dec-01 07:58N 51°54' E 004°27'0 0.0
2017-Dec-01 07:28N 51°54' E 004°27'0 0.0
2017-Dec-01 06:58N 51°54' E 004°27'0 0.0
2017-Dec-01 06:28N 51°54' E 004°27'0 0.0
2017-Dec-01 05:58N 51°54' E 004°27'0 0.0
2017-Dec-01 05:28N 51°54' E 004°27'0 0.0
2017-Dec-01 04:58N 51°54' E 004°27'0 0.0
2017-Dec-01 04:28N 51°54' E 004°27'0 0.0
2017-Dec-01 03:58N 51°54' E 004°27'0 0.0
2017-Dec-01 03:28N 51°54' E 004°27'0 0.0
2017-Dec-01 02:58N 51°54' E 004°27'0 0.0
2017-Dec-01 02:28N 51°54' E 004°27'0 0.0
2017-Dec-01 01:58N 51°54' E 004°27'0 0.0
2017-Dec-01 01:28N 51°54' E 004°27'0 0.0
2017-Dec-01 00:58N 51°54' E 004°27'0 0.0
2017-Dec-01 00:28N 51°54' E 004°27'0 0.0
2017-Nov-30 23:58N 51°54' E 004°27'0 0.0
2017-Nov-30 23:28N 51°54' E 004°27'0 0.0
2017-Nov-30 22:58N 51°54' E 004°27'0 0.0
2017-Nov-30 22:28N 51°54' E 004°27'0 0.0
2017-Nov-30 21:58N 51°54' E 004°27'0 0.0
2017-Nov-30 21:28N 51°54' E 004°27'0 0.0
2017-Nov-30 20:58N 51°54' E 004°27'0 0.0
2017-Nov-30 20:28N 51°54' E 004°27'0 0.0
2017-Nov-30 19:58N 51°54' E 004°27'0 0.0
2017-Nov-30 19:28N 51°54' E 004°27'0 0.0
2017-Nov-30 18:58N 51°54' E 004°27'0 0.0
2017-Nov-30 18:28N 51°54' E 004°27'0 0.0
2017-Nov-30 17:58N 51°54' E 004°27'0 0.0
2017-Nov-30 17:28N 51°54' E 004°27'0 0.0
2017-Nov-30 16:58N 51°54' E 004°27'0 0.0
2017-Nov-30 16:28N 51°54' E 004°27'0 0.0
2017-Nov-30 15:58N 51°54' E 004°27'0 0.0
2017-Nov-30 15:28N 51°54' E 004°27'0 0.0
2017-Nov-30 14:58N 51°54' E 004°27'0 0.0
2017-Nov-30 14:28N 51°54' E 004°27'0 0.0
2017-Nov-30 13:58N 51°54' E 004°27'0 0.0
2017-Nov-30 13:28N 51°54' E 004°27'0 0.0
2017-Nov-30 12:58N 51°54' E 004°27'0 0.0
2017-Nov-30 12:28N 51°54' E 004°27'0 0.0
2017-Nov-30 11:58N 51°54' E 004°27'0 0.0
2017-Nov-30 11:28N 51°54' E 004°27'0 0.0
2017-Nov-30 10:58N 51°54' E 004°27'0 0.0
2017-Nov-30 10:28N 51°54' E 004°27'0 0.0
2017-Nov-30 09:58N 51°54' E 004°27'0 0.0
2017-Nov-30 09:28N 51°54' E 004°27'0 0.0
2017-Nov-30 08:58N 51°54' E 004°27'1 1.5
2017-Nov-30 08:31N 51°54' E 004°26'3 6.4
2017-Nov-30 08:00N 51°54' E 004°21'5 9.4
2017-Nov-30 07:31N 51°55' E 004°14'510.1
2017-Nov-30 07:00N 51°58' E 004°07'611.5
2017-Nov-30 06:31N 52°00' E 003°59'611.9
2017-Nov-30 06:01N 51°60' E 003°49'510.3
2017-Nov-30 05:30N 51°58' E 003°41'2312.2
2017-Nov-30 03:37N 51°51' E 003°05'111.9
2017-Nov-30 03:30N 51°50' E 003°03'3011.9
2017-Nov-30 00:56N 51°34' E 002°22'512.6
2017-Nov-30 00:30N 51°31' E 002°15'712.1
2017-Nov-29 23:58N 51°24' E 002°12'612.2
2017-Nov-29 23:30N 51°19' E 002°08'612.4
2017-Nov-29 22:59N 51°14' E 002°03'613.1
2017-Nov-29 22:30N 51°10' E 001°55'713.7
2017-Nov-29 22:01N 51°06' E 001°46'713.7
2017-Nov-29 21:30N 51°00' E 001°39'714.2
2017-Nov-29 21:00N 50°55' E 001°32'6213.6
2017-Nov-29 16:26N 50°22' E 000°08'615.1
2017-Nov-29 16:01N 50°21' W 000°01'815.0
2017-Nov-29 15:31N 50°20' W 000°13'4014.5
2017-Nov-29 12:43N 50°15' W 001°16'313.3
2017-Nov-29 12:28N 50°14' W 001°21'613.0
2017-Nov-29 12:00N 50°14' W 001°30'612.7
2017-Nov-29 11:30N 50°13' W 001°40'612.2
2017-Nov-29 11:00N 50°12' W 001°49'611.9
2017-Nov-29 10:30N 50°11' W 001°58'2912.0
2017-Nov-29 08:07N 50°08' W 002°43'212.8
2017-Nov-29 07:59N 50°07' W 002°45'712.9
2017-Nov-29 07:27N 50°06' W 002°56'613.2
2017-Nov-29 07:00N 50°05' W 003°05'713.4
2017-Nov-29 06:29N 50°05' W 003°16'613.6
2017-Nov-29 06:00N 50°04' W 003°26'713.8
2017-Nov-29 05:30N 50°03' W 003°36'714.0
2017-Nov-29 05:00N 50°02' W 003°47'714.0
2017-Nov-29 04:30N 50°01' W 003°58'714.1
2017-Nov-29 04:00N 50°00' W 004°09'714.1
2017-Nov-29 03:30N 49°59' W 004°20'714.2
2017-Nov-29 03:00N 49°58' W 004°31'714.5
2017-Nov-29 02:30N 49°57' W 004°42'714.4
2017-Nov-29 02:00N 49°56' W 004°53'714.5
2017-Nov-29 01:30N 49°56' W 005°04'914.7
2017-Nov-29 00:52N 49°55' W 005°19'614.6
2017-Nov-29 00:25N 49°55' W 005°29'  
Track history (hours):
 
Tides and Currents Weather Stations Pressure Air Temp Water Temp Dewpoint Dewpoint Depression Visibility Wind Speed Wind Dir Waves Ship Positions

Fagelgracht

Last reported at 2017-Dec-03 02:45 UTC. Time now 2017-Dec-11 07:37 UTC.
Position N 51°35' W 005°51'.
Warning: this ship's position is 8 days out of date.

Length 136 m; draft 8.1 m.

Type: Cargo ship. MMSI: 246591000.

Date/timePositionNaut miles runAvg speedWind from/ knotsBaromVisibWave heightAir tempDewpointWater temp
2017-Dec-03 02:45N 51°35' W 005°51'311.2
2017-Dec-03 02:29N 51°32' W 005°51'3111.4
2017-Dec-02 23:48N 51°01' W 005°52'511.7
2017-Dec-02 23:25N 50°57' W 005°52'511.9
2017-Dec-02 22:58N 50°51' W 005°52'511.9
2017-Dec-02 22:31N 50°46' W 005°52'611.8
2017-Dec-02 22:01N 50°40' W 005°52'611.7
2017-Dec-02 21:31N 50°34' W 005°52'611.6
2017-Dec-02 21:00N 50°28' W 005°53'611.6
2017-Dec-02 20:30N 50°23' W 005°53'611.3
2017-Dec-02 19:57N 50°16' W 005°53'24 8.6
2017-Dec-02 17:07N 49°55' W 005°35'1711.3
2017-Dec-02 15:36N 49°56' W 005°08'111.5
2017-Dec-02 15:29N 49°56' W 005°06'611.9
2017-Dec-02 14:59N 49°57' W 004°57'612.2
2017-Dec-02 14:31N 49°58' W 004°48'612.6
2017-Dec-02 14:00N 49°59' W 004°38'612.9
2017-Dec-02 13:30N 50°00' W 004°28'713.2
2017-Dec-02 13:01N 50°02' W 004°18'713.6
2017-Dec-02 12:29N 50°03' W 004°07'814.1
2017-Dec-02 11:57N 50°04' W 003°56'614.7
2017-Dec-02 11:31N 50°05' W 003°46'815.0
2017-Dec-02 11:00N 50°07' W 003°34'714.8
2017-Dec-02 10:31N 50°08' W 003°23'714.5
2017-Dec-02 10:01N 50°09' W 003°12'714.0
2017-Dec-02 09:30N 50°11' W 003°01'713.5
2017-Dec-02 09:00N 50°12' W 002°51'613.0
2017-Dec-02 08:30N 50°13' W 002°41'712.2
2017-Dec-02 07:56N 50°14' W 002°30'2110.7
2017-Dec-02 06:01N 50°18' W 001°59'210.1
2017-Dec-02 05:51N 50°18' W 001°56'410.3
2017-Dec-02 05:30N 50°19' W 001°51'3212.2
2017-Dec-02 02:52N 50°24' W 001°01'715.0
2017-Dec-02 02:25N 50°26' W 000°51'1015.3
2017-Dec-02 01:45N 50°28' W 000°35'515.1
2017-Dec-02 01:27N 50°28' W 000°28'715.1
2017-Dec-02 01:00N 50°30' W 000°17'714.8
2017-Dec-02 00:30N 50°31' W 000°06'714.6
2017-Dec-02 00:00N 50°33' E 000°05'714.4
2017-Dec-01 23:30N 50°35' E 000°16'714.2
2017-Dec-01 23:00N 50°37' E 000°27'713.6
2017-Dec-01 22:31N 50°39' E 000°37'713.2
2017-Dec-01 22:01N 50°43' E 000°45'612.8
2017-Dec-01 21:31N 50°47' E 000°54'1812.6
2017-Dec-01 20:03N 50°58' E 001°16'413.3
2017-Dec-01 19:43N 51°01' E 001°22'314.1
2017-Dec-01 19:31N 51°03' E 001°25'815.4
2017-Dec-01 19:00N 51°08' E 001°35'815.8
2017-Dec-01 18:30N 51°13' E 001°44'816.2
2017-Dec-01 18:00N 51°20' E 001°50'815.7
2017-Dec-01 17:31N 51°27' E 001°56'815.0
2017-Dec-01 17:01N 51°32' E 002°04'714.5
2017-Dec-01 16:30N 51°38' E 002°13'714.1
2017-Dec-01 16:00N 51°43' E 002°21'5611.8
2017-Dec-01 11:13N 52°02' E 003°46'211.3
2017-Dec-01 11:00N 52°02' E 003°50'5 9.9
2017-Dec-01 10:30N 52°01' E 003°58'611.8
2017-Dec-01 10:01N 51°59' E 004°07'5 9.4
2017-Dec-01 09:31N 51°56' E 004°13'5 9.1
2017-Dec-01 09:01N 51°54' E 004°19'4 8.2
2017-Dec-01 08:31N 51°54' E 004°26'1 2.2
2017-Dec-01 07:58N 51°54' E 004°27'0 0.0
2017-Dec-01 07:28N 51°54' E 004°27'0 0.0
2017-Dec-01 06:58N 51°54' E 004°27'0 0.0
2017-Dec-01 06:28N 51°54' E 004°27'0 0.0
2017-Dec-01 05:58N 51°54' E 004°27'0 0.0
2017-Dec-01 05:28N 51°54' E 004°27'0 0.0
2017-Dec-01 04:58N 51°54' E 004°27'0 0.0
2017-Dec-01 04:28N 51°54' E 004°27'0 0.0
2017-Dec-01 03:58N 51°54' E 004°27'0 0.0
2017-Dec-01 03:28N 51°54' E 004°27'0 0.0
2017-Dec-01 02:58N 51°54' E 004°27'0 0.0
2017-Dec-01 02:28N 51°54' E 004°27'0 0.0
2017-Dec-01 01:58N 51°54' E 004°27'0 0.0
2017-Dec-01 01:28N 51°54' E 004°27'0 0.0
2017-Dec-01 00:58N 51°54' E 004°27'0 0.0
2017-Dec-01 00:28N 51°54' E 004°27'0 0.0
2017-Nov-30 23:58N 51°54' E 004°27'0 0.0
2017-Nov-30 23:28N 51°54' E 004°27'0 0.0
2017-Nov-30 22:58N 51°54' E 004°27'0 0.0
2017-Nov-30 22:28N 51°54' E 004°27'0 0.0
2017-Nov-30 21:58N 51°54' E 004°27'0 0.0
2017-Nov-30 21:28N 51°54' E 004°27'0 0.0
2017-Nov-30 20:58N 51°54' E 004°27'0 0.0
2017-Nov-30 20:28N 51°54' E 004°27'0 0.0
2017-Nov-30 19:58N 51°54' E 004°27'0 0.0
2017-Nov-30 19:28N 51°54' E 004°27'0 0.0
2017-Nov-30 18:58N 51°54' E 004°27'0 0.0
2017-Nov-30 18:28N 51°54' E 004°27'0 0.0
2017-Nov-30 17:58N 51°54' E 004°27'0 0.0
2017-Nov-30 17:28N 51°54' E 004°27'0 0.0
2017-Nov-30 16:58N 51°54' E 004°27'0 0.0
2017-Nov-30 16:28N 51°54' E 004°27'0 0.0
2017-Nov-30 15:58N 51°54' E 004°27'0 0.0
2017-Nov-30 15:28N 51°54' E 004°27'0 0.0
2017-Nov-30 14:58N 51°54' E 004°27'0 0.0
2017-Nov-30 14:28N 51°54' E 004°27'0 0.0
2017-Nov-30 13:58N 51°54' E 004°27'0 0.0
2017-Nov-30 13:28N 51°54' E 004°27'0 0.0
2017-Nov-30 12:58N 51°54' E 004°27'0 0.0
2017-Nov-30 12:28N 51°54' E 004°27'0 0.0
2017-Nov-30 11:58N 51°54' E 004°27'0 0.0
2017-Nov-30 11:28N 51°54' E 004°27'0 0.0
2017-Nov-30 10:58N 51°54' E 004°27'0 0.0
2017-Nov-30 10:28N 51°54' E 004°27'0 0.0
2017-Nov-30 09:58N 51°54' E 004°27'0 0.0
2017-Nov-30 09:28N 51°54' E 004°27'0 0.0
2017-Nov-30 08:58N 51°54' E 004°27'1 1.5
2017-Nov-30 08:31N 51°54' E 004°26'3 6.4
2017-Nov-30 08:00N 51°54' E 004°21'5 9.4
2017-Nov-30 07:31N 51°55' E 004°14'510.1
2017-Nov-30 07:00N 51°58' E 004°07'611.5
2017-Nov-30 06:31N 52°00' E 003°59'611.9
2017-Nov-30 06:01N 51°60' E 003°49'510.3
2017-Nov-30 05:30N 51°58' E 003°41'2312.2
2017-Nov-30 03:37N 51°51' E 003°05'111.9
2017-Nov-30 03:30N 51°50' E 003°03'3011.9
2017-Nov-30 00:56N 51°34' E 002°22'512.6
2017-Nov-30 00:30N 51°31' E 002°15'712.1
2017-Nov-29 23:58N 51°24' E 002°12'612.2
2017-Nov-29 23:30N 51°19' E 002°08'612.4
2017-Nov-29 22:59N 51°14' E 002°03'613.1
2017-Nov-29 22:30N 51°10' E 001°55'713.7
2017-Nov-29 22:01N 51°06' E 001°46'713.7
2017-Nov-29 21:30N 51°00' E 001°39'714.2
2017-Nov-29 21:00N 50°55' E 001°32'6213.6
2017-Nov-29 16:26N 50°22' E 000°08'615.1
2017-Nov-29 16:01N 50°21' W 000°01'815.0
2017-Nov-29 15:31N 50°20' W 000°13'4014.5
2017-Nov-29 12:43N 50°15' W 001°16'313.3
2017-Nov-29 12:28N 50°14' W 001°21'613.0
2017-Nov-29 12:00N 50°14' W 001°30'612.7
2017-Nov-29 11:30N 50°13' W 001°40'612.2
2017-Nov-29 11:00N 50°12' W 001°49'611.9
2017-Nov-29 10:30N 50°11' W 001°58'2912.0
2017-Nov-29 08:07N 50°08' W 002°43'212.8
2017-Nov-29 07:59N 50°07' W 002°45'712.9
2017-Nov-29 07:27N 50°06' W 002°56'613.2
2017-Nov-29 07:00N 50°05' W 003°05'713.4
2017-Nov-29 06:29N 50°05' W 003°16'613.6
2017-Nov-29 06:00N 50°04' W 003°26'713.8
2017-Nov-29 05:30N 50°03' W 003°36'714.0
2017-Nov-29 05:00N 50°02' W 003°47'714.0
2017-Nov-29 04:30N 50°01' W 003°58'714.1
2017-Nov-29 04:00N 50°00' W 004°09'714.1
2017-Nov-29 03:30N 49°59' W 004°20'714.2
2017-Nov-29 03:00N 49°58' W 004°31'714.5
2017-Nov-29 02:30N 49°57' W 004°42'714.4
2017-Nov-29 02:00N 49°56' W 004°53'714.5
2017-Nov-29 01:30N 49°56' W 005°04'914.7
2017-Nov-29 00:52N 49°55' W 005°19'614.6
2017-Nov-29 00:25N 49°55' W 005°29'  

Dump ship's entire track history